sensor_id;sensor_type;location;lat;lon;timestamp;P1;durP1;ratioP1;P2;durP2;ratioP2
21721;SDS011;11023;48.274;7.794;2022-09-09T00:01:01;5.07;;;1.40;;
21721;SDS011;11023;48.274;7.794;2022-09-09T00:03:44;5.53;;;1.30;;
21721;SDS011;11023;48.274;7.794;2022-09-09T00:06:34;5.07;;;1.30;;
21721;SDS011;11023;48.274;7.794;2022-09-09T00:14:17;6.65;;;1.52;;
21721;SDS011;11023;48.274;7.794;2022-09-09T00:16:49;5.22;;;1.42;;
21721;SDS011;11023;48.274;7.794;2022-09-09T00:20:04;5.15;;;1.25;;
21721;SDS011;11023;48.274;7.794;2022-09-09T00:22:16;5.63;;;1.58;;
21721;SDS011;11023;48.274;7.794;2022-09-09T00:24:51;3.00;;;1.20;;
21721;SDS011;11023;48.274;7.794;2022-09-09T00:29:45;3.35;;;1.13;;
21721;SDS011;11023;48.274;7.794;2022-09-09T00:32:21;4.00;;;1.20;;
21721;SDS011;11023;48.274;7.794;2022-09-09T00:34:48;4.68;;;1.00;;
21721;SDS011;11023;48.274;7.794;2022-09-09T00:37:19;3.78;;;0.98;;
21721;SDS011;11023;48.274;7.794;2022-09-09T00:39:46;2.35;;;0.80;;
21721;SDS011;11023;48.274;7.794;2022-09-09T00:42:46;2.58;;;0.82;;
21721;SDS011;11023;48.274;7.794;2022-09-09T00:45:24;4.13;;;1.27;;
21721;SDS011;11023;48.274;7.794;2022-09-09T00:48:09;1.40;;;0.50;;
21721;SDS011;11023;48.274;7.794;2022-09-09T00:53:31;2.33;;;0.80;;
21721;SDS011;11023;48.274;7.794;2022-09-09T00:58:47;2.55;;;0.60;;
21721;SDS011;11023;48.274;7.794;2022-09-09T01:01:35;2.90;;;0.57;;
21721;SDS011;11023;48.274;7.794;2022-09-09T01:04:01;1.65;;;0.50;;
21721;SDS011;11023;48.274;7.794;2022-09-09T01:06:35;1.30;;;0.40;;
21721;SDS011;11023;48.274;7.794;2022-09-09T01:14:16;2.67;;;0.60;;
21721;SDS011;11023;48.274;7.794;2022-09-09T01:16:56;1.42;;;0.50;;
21721;SDS011;11023;48.274;7.794;2022-09-09T01:19:45;1.35;;;0.40;;
21721;SDS011;11023;48.274;7.794;2022-09-09T01:28:14;1.15;;;0.52;;
21721;SDS011;11023;48.274;7.794;2022-09-09T01:30:44;1.65;;;0.55;;
21721;SDS011;11023;48.274;7.794;2022-09-09T01:33:16;2.80;;;0.50;;
21721;SDS011;11023;48.274;7.794;2022-09-09T01:35:45;1.48;;;0.40;;
21721;SDS011;11023;48.274;7.794;2022-09-09T01:38:28;1.33;;;0.40;;
21721;SDS011;11023;48.274;7.794;2022-09-09T01:40:56;3.53;;;0.50;;
21721;SDS011;11023;48.274;7.794;2022-09-09T01:43:23;1.38;;;0.50;;
21721;SDS011;11023;48.274;7.794;2022-09-09T01:45:51;3.85;;;0.57;;
21721;SDS011;11023;48.274;7.794;2022-09-09T01:48:19;2.63;;;0.40;;
21721;SDS011;11023;48.274;7.794;2022-09-09T01:50:47;3.17;;;0.63;;
21721;SDS011;11023;48.274;7.794;2022-09-09T01:53:13;1.80;;;0.50;;
21721;SDS011;11023;48.274;7.794;2022-09-09T01:55:43;1.13;;;0.38;;
21721;SDS011;11023;48.274;7.794;2022-09-09T02:01:39;1.50;;;0.50;;
21721;SDS011;11023;48.274;7.794;2022-09-09T02:03:38;3.88;;;0.60;;
21721;SDS011;11023;48.274;7.794;2022-09-09T02:06:28;2.08;;;0.50;;
21721;SDS011;11023;48.274;7.794;2022-09-09T02:08:59;1.60;;;0.60;;
21721;SDS011;11023;48.274;7.794;2022-09-09T02:11:29;2.95;;;0.60;;
21721;SDS011;11023;48.274;7.794;2022-09-09T02:16:48;2.75;;;0.88;;
21721;SDS011;11023;48.274;7.794;2022-09-09T02:19:21;1.50;;;0.60;;
21721;SDS011;11023;48.274;7.794;2022-09-09T02:21:52;2.72;;;0.73;;
21721;SDS011;11023;48.274;7.794;2022-09-09T02:24:21;1.98;;;0.70;;
21721;SDS011;11023;48.274;7.794;2022-09-09T02:26:48;3.17;;;0.68;;
21721;SDS011;11023;48.274;7.794;2022-09-09T02:29:27;2.40;;;0.70;;
21721;SDS011;11023;48.274;7.794;2022-09-09T02:32:01;2.97;;;0.70;;
21721;SDS011;11023;48.274;7.794;2022-09-09T02:34:30;1.95;;;0.70;;
21721;SDS011;11023;48.274;7.794;2022-09-09T02:36:59;4.93;;;0.82;;
21721;SDS011;11023;48.274;7.794;2022-09-09T02:39:28;3.65;;;0.80;;
21721;SDS011;11023;48.274;7.794;2022-09-09T02:41:54;2.00;;;0.65;;
21721;SDS011;11023;48.274;7.794;2022-09-09T02:44:19;5.90;;;0.80;;
21721;SDS011;11023;48.274;7.794;2022-09-09T02:52:08;3.70;;;0.82;;
21721;SDS011;11023;48.274;7.794;2022-09-09T02:54:43;5.18;;;1.10;;
21721;SDS011;11023;48.274;7.794;2022-09-09T02:57:20;3.65;;;0.82;;
21721;SDS011;11023;48.274;7.794;2022-09-09T02:59:49;3.15;;;1.00;;
21721;SDS011;11023;48.274;7.794;2022-09-09T03:02:17;4.15;;;1.50;;
21721;SDS011;11023;48.274;7.794;2022-09-09T03:04:43;4.00;;;1.17;;
21721;SDS011;11023;48.274;7.794;2022-09-09T03:07:15;4.55;;;0.93;;
21721;SDS011;11023;48.274;7.794;2022-09-09T03:09:42;6.13;;;0.95;;
21721;SDS011;11023;48.274;7.794;2022-09-09T03:12:08;3.65;;;1.10;;
21721;SDS011;11023;48.274;7.794;2022-09-09T03:14:35;5.32;;;1.27;;
21721;SDS011;11023;48.274;7.794;2022-09-09T03:17:00;5.45;;;1.40;;
21721;SDS011;11023;48.274;7.794;2022-09-09T03:19:27;2.22;;;1.50;;
21721;SDS011;11023;48.274;7.794;2022-09-09T03:21:53;4.45;;;1.42;;
21721;SDS011;11023;48.274;7.794;2022-09-09T03:24:19;2.90;;;1.10;;
21721;SDS011;11023;48.274;7.794;2022-09-09T03:26:44;6.05;;;1.20;;
21721;SDS011;11023;48.274;7.794;2022-09-09T03:29:11;4.13;;;1.10;;
21721;SDS011;11023;48.274;7.794;2022-09-09T03:31:40;3.15;;;1.20;;
21721;SDS011;11023;48.274;7.794;2022-09-09T03:34:07;4.85;;;1.27;;
21721;SDS011;11023;48.274;7.794;2022-09-09T03:36:33;4.18;;;1.13;;
21721;SDS011;11023;48.274;7.794;2022-09-09T03:38:59;4.45;;;1.23;;
21721;SDS011;11023;48.274;7.794;2022-09-09T03:41:25;7.55;;;1.20;;
21721;SDS011;11023;48.274;7.794;2022-09-09T03:43:51;7.18;;;1.30;;
21721;SDS011;11023;48.274;7.794;2022-09-09T03:46:18;5.22;;;1.00;;
21721;SDS011;11023;48.274;7.794;2022-09-09T03:48:45;3.22;;;1.00;;
21721;SDS011;11023;48.274;7.794;2022-09-09T03:51:10;4.82;;;1.17;;
21721;SDS011;11023;48.274;7.794;2022-09-09T03:53:36;4.38;;;1.20;;
21721;SDS011;11023;48.274;7.794;2022-09-09T03:56:03;2.67;;;0.95;;
21721;SDS011;11023;48.274;7.794;2022-09-09T03:58:32;3.30;;;1.30;;
21721;SDS011;11023;48.274;7.794;2022-09-09T04:01:11;4.35;;;1.08;;
21721;SDS011;11023;48.274;7.794;2022-09-09T04:03:39;6.07;;;1.20;;
21721;SDS011;11023;48.274;7.794;2022-09-09T04:06:06;4.30;;;1.10;;
21721;SDS011;11023;48.274;7.794;2022-09-09T04:08:34;4.07;;;1.23;;
21721;SDS011;11023;48.274;7.794;2022-09-09T04:11:01;2.88;;;1.17;;
21721;SDS011;11023;48.274;7.794;2022-09-09T04:13:30;5.35;;;1.35;;
21721;SDS011;11023;48.274;7.794;2022-09-09T04:15:56;3.25;;;1.48;;
21721;SDS011;11023;48.274;7.794;2022-09-09T04:18:24;3.90;;;1.30;;
21721;SDS011;11023;48.274;7.794;2022-09-09T04:20:51;7.10;;;1.77;;
21721;SDS011;11023;48.274;7.794;2022-09-09T04:23:18;2.20;;;1.20;;
21721;SDS011;11023;48.274;7.794;2022-09-09T04:25:49;4.25;;;1.30;;
21721;SDS011;11023;48.274;7.794;2022-09-09T04:28:16;5.15;;;1.50;;
21721;SDS011;11023;48.274;7.794;2022-09-09T04:30:44;5.97;;;1.17;;
21721;SDS011;11023;48.274;7.794;2022-09-09T04:33:10;3.05;;;1.20;;
21721;SDS011;11023;48.274;7.794;2022-09-09T04:35:36;6.43;;;1.92;;
21721;SDS011;11023;48.274;7.794;2022-09-09T04:38:03;3.55;;;1.35;;
21721;SDS011;11023;48.274;7.794;2022-09-09T04:40:30;4.75;;;1.23;;
21721;SDS011;11023;48.274;7.794;2022-09-09T04:42:59;4.63;;;1.25;;
21721;SDS011;11023;48.274;7.794;2022-09-09T04:45:27;5.07;;;1.40;;
21721;SDS011;11023;48.274;7.794;2022-09-09T04:47:53;5.60;;;1.30;;
21721;SDS011;11023;48.274;7.794;2022-09-09T04:50:18;4.72;;;1.25;;
21721;SDS011;11023;48.274;7.794;2022-09-09T04:52:44;2.28;;;1.10;;
21721;SDS011;11023;48.274;7.794;2022-09-09T04:55:10;4.82;;;1.20;;
21721;SDS011;11023;48.274;7.794;2022-09-09T04:57:37;4.93;;;1.20;;
21721;SDS011;11023;48.274;7.794;2022-09-09T05:00:04;6.20;;;1.20;;
21721;SDS011;11023;48.274;7.794;2022-09-09T05:02:30;6.28;;;1.35;;
21721;SDS011;11023;48.274;7.794;2022-09-09T05:04:57;4.75;;;1.13;;
21721;SDS011;11023;48.274;7.794;2022-09-09T05:07:23;3.22;;;1.25;;
21721;SDS011;11023;48.274;7.794;2022-09-09T05:09:51;6.72;;;1.23;;
21721;SDS011;11023;48.274;7.794;2022-09-09T05:12:16;5.05;;;1.13;;
21721;SDS011;11023;48.274;7.794;2022-09-09T05:14:43;2.78;;;1.10;;
21721;SDS011;11023;48.274;7.794;2022-09-09T05:17:08;4.03;;;1.05;;
21721;SDS011;11023;48.274;7.794;2022-09-09T05:19:35;3.40;;;1.20;;
21721;SDS011;11023;48.274;7.794;2022-09-09T05:22:01;2.30;;;1.15;;
21721;SDS011;11023;48.274;7.794;2022-09-09T05:24:27;4.68;;;1.00;;
21721;SDS011;11023;48.274;7.794;2022-09-09T05:26:53;7.25;;;1.20;;
21721;SDS011;11023;48.274;7.794;2022-09-09T05:29:19;3.70;;;1.02;;
21721;SDS011;11023;48.274;7.794;2022-09-09T05:31:45;2.83;;;1.00;;
21721;SDS011;11023;48.274;7.794;2022-09-09T05:34:12;4.75;;;1.08;;
21721;SDS011;11023;48.274;7.794;2022-09-09T05:36:37;6.30;;;1.10;;
21721;SDS011;11023;48.274;7.794;2022-09-09T05:39:03;4.85;;;1.42;;
21721;SDS011;11023;48.274;7.794;2022-09-09T05:41:29;2.67;;;0.95;;
21721;SDS011;11023;48.274;7.794;2022-09-09T05:43:56;3.17;;;1.00;;
21721;SDS011;11023;48.274;7.794;2022-09-09T05:46:23;5.38;;;1.00;;
21721;SDS011;11023;48.274;7.794;2022-09-09T05:48:50;3.63;;;1.10;;
21721;SDS011;11023;48.274;7.794;2022-09-09T05:51:24;8.52;;;1.13;;
21721;SDS011;11023;48.274;7.794;2022-09-09T05:53:51;3.72;;;1.10;;
21721;SDS011;11023;48.274;7.794;2022-09-09T05:58:44;5.00;;;1.20;;
21721;SDS011;11023;48.274;7.794;2022-09-09T06:01:18;2.55;;;0.90;;
21721;SDS011;11023;48.274;7.794;2022-09-09T06:03:47;3.58;;;1.00;;
21721;SDS011;11023;48.274;7.794;2022-09-09T06:06:24;4.72;;;1.20;;
21721;SDS011;11023;48.274;7.794;2022-09-09T06:08:52;2.28;;;0.88;;
21721;SDS011;11023;48.274;7.794;2022-09-09T06:11:29;5.95;;;1.20;;
21721;SDS011;11023;48.274;7.794;2022-09-09T06:13:59;3.08;;;1.02;;
21721;SDS011;11023;48.274;7.794;2022-09-09T06:16:26;5.43;;;1.02;;
21721;SDS011;11023;48.274;7.794;2022-09-09T06:18:53;3.75;;;1.00;;
21721;SDS011;11023;48.274;7.794;2022-09-09T06:21:22;5.82;;;0.90;;
21721;SDS011;11023;48.274;7.794;2022-09-09T06:23:49;4.03;;;1.10;;
21721;SDS011;11023;48.274;7.794;2022-09-09T06:26:20;2.58;;;1.20;;
21721;SDS011;11023;48.274;7.794;2022-09-09T06:28:47;2.90;;;0.82;;
21721;SDS011;11023;48.274;7.794;2022-09-09T06:31:18;8.73;;;1.30;;
21721;SDS011;11023;48.274;7.794;2022-09-09T06:33:49;5.60;;;1.10;;
21721;SDS011;11023;48.274;7.794;2022-09-09T06:36:17;5.22;;;1.10;;
21721;SDS011;11023;48.274;7.794;2022-09-09T06:38:44;3.63;;;1.02;;
21721;SDS011;11023;48.274;7.794;2022-09-09T06:41:11;5.85;;;1.00;;
21721;SDS011;11023;48.274;7.794;2022-09-09T06:43:38;4.93;;;0.98;;
21721;SDS011;11023;48.274;7.794;2022-09-09T06:46:05;7.43;;;1.00;;
21721;SDS011;11023;48.274;7.794;2022-09-09T06:48:39;4.57;;;1.10;;
21721;SDS011;11023;48.274;7.794;2022-09-09T06:51:08;2.88;;;1.00;;
21721;SDS011;11023;48.274;7.794;2022-09-09T06:53:39;2.72;;;1.00;;
21721;SDS011;11023;48.274;7.794;2022-09-09T06:58:35;3.60;;;1.10;;
21721;SDS011;11023;48.274;7.794;2022-09-09T07:01:05;4.80;;;1.10;;
21721;SDS011;11023;48.274;7.794;2022-09-09T07:03:31;3.33;;;1.23;;
21721;SDS011;11023;48.274;7.794;2022-09-09T07:05:58;6.00;;;1.00;;
21721;SDS011;11023;48.274;7.794;2022-09-09T07:08:24;6.82;;;1.10;;
21721;SDS011;11023;48.274;7.794;2022-09-09T07:10:51;3.80;;;0.88;;
21721;SDS011;11023;48.274;7.794;2022-09-09T07:13:28;4.82;;;0.90;;
21721;SDS011;11023;48.274;7.794;2022-09-09T07:15:54;5.63;;;1.15;;
21721;SDS011;11023;48.274;7.794;2022-09-09T07:18:20;3.50;;;1.00;;
21721;SDS011;11023;48.274;7.794;2022-09-09T07:20:54;5.85;;;1.10;;
21721;SDS011;11023;48.274;7.794;2022-09-09T07:23:21;5.43;;;1.05;;
21721;SDS011;11023;48.274;7.794;2022-09-09T07:25:48;6.53;;;1.00;;
21721;SDS011;11023;48.274;7.794;2022-09-09T07:28:13;4.45;;;1.10;;
21721;SDS011;11023;48.274;7.794;2022-09-09T07:30:39;3.40;;;1.00;;
21721;SDS011;11023;48.274;7.794;2022-09-09T07:33:06;3.83;;;1.00;;
21721;SDS011;11023;48.274;7.794;2022-09-09T07:35:32;4.82;;;0.93;;
21721;SDS011;11023;48.274;7.794;2022-09-09T07:37:57;5.68;;;0.88;;
21721;SDS011;11023;48.274;7.794;2022-09-09T07:40:26;5.28;;;1.00;;
21721;SDS011;11023;48.274;7.794;2022-09-09T07:42:51;4.43;;;0.85;;
21721;SDS011;11023;48.274;7.794;2022-09-09T07:45:18;3.28;;;0.75;;
21721;SDS011;11023;48.274;7.794;2022-09-09T07:47:44;9.63;;;1.30;;
21721;SDS011;11023;48.274;7.794;2022-09-09T07:50:10;4.18;;;1.30;;
21721;SDS011;11023;48.274;7.794;2022-09-09T07:52:36;4.85;;;1.10;;
21721;SDS011;11023;48.274;7.794;2022-09-09T07:55:02;3.83;;;0.90;;
21721;SDS011;11023;48.274;7.794;2022-09-09T07:57:29;7.35;;;1.00;;
21721;SDS011;11023;48.274;7.794;2022-09-09T07:59:55;4.78;;;1.02;;
21721;SDS011;11023;48.274;7.794;2022-09-09T08:02:22;4.72;;;0.90;;
21721;SDS011;11023;48.274;7.794;2022-09-09T08:04:48;6.25;;;1.30;;
21721;SDS011;11023;48.274;7.794;2022-09-09T08:07:14;5.78;;;0.90;;
21721;SDS011;11023;48.274;7.794;2022-09-09T08:09:41;5.47;;;1.10;;
21721;SDS011;11023;48.274;7.794;2022-09-09T08:12:06;7.05;;;0.98;;
21721;SDS011;11023;48.274;7.794;2022-09-09T08:14:34;4.20;;;0.82;;
21721;SDS011;11023;48.274;7.794;2022-09-09T08:16:59;3.40;;;0.90;;
21721;SDS011;11023;48.274;7.794;2022-09-09T08:19:25;5.80;;;1.42;;
21721;SDS011;11023;48.274;7.794;2022-09-09T08:21:54;3.75;;;0.90;;
21721;SDS011;11023;48.274;7.794;2022-09-09T08:24:19;6.57;;;1.00;;
21721;SDS011;11023;48.274;7.794;2022-09-09T08:26:46;3.75;;;0.75;;
21721;SDS011;11023;48.274;7.794;2022-09-09T08:29:14;2.85;;;1.00;;
21721;SDS011;11023;48.274;7.794;2022-09-09T08:31:48;6.88;;;1.15;;
21721;SDS011;11023;48.274;7.794;2022-09-09T08:34:15;3.25;;;0.88;;
21721;SDS011;11023;48.274;7.794;2022-09-09T08:36:43;5.32;;;0.82;;
21721;SDS011;11023;48.274;7.794;2022-09-09T08:39:11;7.68;;;1.13;;
21721;SDS011;11023;48.274;7.794;2022-09-09T08:47:06;2.92;;;1.00;;
21721;SDS011;11023;48.274;7.794;2022-09-09T08:49:59;6.68;;;1.30;;
21721;SDS011;11023;48.274;7.794;2022-09-09T09:00:20;2.67;;;0.60;;
21721;SDS011;11023;48.274;7.794;2022-09-09T09:03:06;4.82;;;0.90;;
21721;SDS011;11023;48.274;7.794;2022-09-09T09:06:09;4.38;;;1.17;;
21721;SDS011;11023;48.274;7.794;2022-09-09T09:12:01;3.83;;;1.00;;
21721;SDS011;11023;48.274;7.794;2022-09-09T09:14:34;7.97;;;1.15;;
21721;SDS011;11023;48.274;7.794;2022-09-09T09:19:34;7.97;;;1.27;;
21721;SDS011;11023;48.274;7.794;2022-09-09T09:27:15;7.75;;;1.48;;
21721;SDS011;11023;48.274;7.794;2022-09-09T09:30:04;4.75;;;1.30;;
21721;SDS011;11023;48.274;7.794;2022-09-09T09:32:39;10.77;;;1.60;;
21721;SDS011;11023;48.274;7.794;2022-09-09T09:35:09;7.75;;;1.20;;
21721;SDS011;11023;48.274;7.794;2022-09-09T09:37:37;4.72;;;1.30;;
21721;SDS011;11023;48.274;7.794;2022-09-09T09:40:12;7.68;;;1.60;;
21721;SDS011;11023;48.274;7.794;2022-09-09T09:42:56;8.05;;;1.60;;
21721;SDS011;11023;48.274;7.794;2022-09-09T09:45:43;6.47;;;1.50;;
21721;SDS011;11023;48.274;7.794;2022-09-09T09:48:12;8.25;;;1.45;;
21721;SDS011;11023;48.274;7.794;2022-09-09T09:50:49;5.28;;;0.95;;
21721;SDS011;11023;48.274;7.794;2022-09-09T09:53:20;5.22;;;1.10;;
21721;SDS011;11023;48.274;7.794;2022-09-09T09:56:08;8.93;;;1.38;;
21721;SDS011;11023;48.274;7.794;2022-09-09T10:01:21;8.15;;;1.80;;
21721;SDS011;11023;48.274;7.794;2022-09-09T10:04:00;7.18;;;1.77;;
21721;SDS011;11023;48.274;7.794;2022-09-09T10:06:32;6.00;;;1.50;;
21721;SDS011;11023;48.274;7.794;2022-09-09T10:09:00;3.80;;;1.20;;
21721;SDS011;11023;48.274;7.794;2022-09-09T10:14:19;6.00;;;1.20;;
21721;SDS011;11023;48.274;7.794;2022-09-09T10:19:31;4.22;;;1.25;;
21721;SDS011;11023;48.274;7.794;2022-09-09T10:22:17;7.07;;;1.70;;
21721;SDS011;11023;48.274;7.794;2022-09-09T10:27:43;6.57;;;1.60;;
21721;SDS011;11023;48.274;7.794;2022-09-09T10:30:22;7.05;;;1.20;;
21721;SDS011;11023;48.274;7.794;2022-09-09T10:33:15;4.25;;;1.10;;
21721;SDS011;11023;48.274;7.794;2022-09-09T10:35:52;5.88;;;1.40;;
21721;SDS011;11023;48.274;7.794;2022-09-09T10:38:46;3.90;;;0.90;;
21721;SDS011;11023;48.274;7.794;2022-09-09T10:57:39;2.63;;;0.75;;
21721;SDS011;11023;48.274;7.794;2022-09-09T11:03:28;2.45;;;0.85;;
21721;SDS011;11023;48.274;7.794;2022-09-09T11:06:09;2.80;;;0.80;;
21721;SDS011;11023;48.274;7.794;2022-09-09T11:08:44;3.40;;;0.90;;
21721;SDS011;11023;48.274;7.794;2022-09-09T11:11:14;4.93;;;1.08;;
21721;SDS011;11023;48.274;7.794;2022-09-09T11:19:11;3.22;;;0.82;;
21721;SDS011;11023;48.274;7.794;2022-09-09T11:21:47;2.80;;;0.63;;
21721;SDS011;11023;48.274;7.794;2022-09-09T11:24:27;5.68;;;1.10;;
21721;SDS011;11023;48.274;7.794;2022-09-09T11:27:06;4.55;;;0.93;;
21721;SDS011;11023;48.274;7.794;2022-09-09T11:35:28;2.67;;;0.60;;
21721;SDS011;11023;48.274;7.794;2022-09-09T11:40:33;2.15;;;0.50;;
21721;SDS011;11023;48.274;7.794;2022-09-09T11:43:08;2.67;;;0.47;;
21721;SDS011;11023;48.274;7.794;2022-09-09T11:45:55;4.45;;;0.60;;
21721;SDS011;11023;48.274;7.794;2022-09-09T11:50:59;5.65;;;0.63;;
21721;SDS011;11023;48.274;7.794;2022-09-09T11:59:27;5.13;;;0.70;;
21721;SDS011;11023;48.274;7.794;2022-09-09T12:01:58;5.75;;;0.80;;
21721;SDS011;11023;48.274;7.794;2022-09-09T12:07:25;1.98;;;0.73;;
21721;SDS011;11023;48.274;7.794;2022-09-09T12:12:50;3.88;;;0.65;;
21721;SDS011;11023;48.274;7.794;2022-09-09T12:15:18;2.83;;;0.80;;
21721;SDS011;11023;48.274;7.794;2022-09-09T12:17:54;1.77;;;0.50;;
21721;SDS011;11023;48.274;7.794;2022-09-09T12:20:23;1.80;;;0.52;;
21721;SDS011;11023;48.274;7.794;2022-09-09T12:23:05;2.17;;;0.55;;
21721;SDS011;11023;48.274;7.794;2022-09-09T12:29:08;3.97;;;0.50;;
21721;SDS011;11023;48.274;7.794;2022-09-09T12:31:55;3.33;;;0.70;;
21721;SDS011;11023;48.274;7.794;2022-09-09T12:40:23;3.13;;;0.70;;
21721;SDS011;11023;48.274;7.794;2022-09-09T12:42:50;3.35;;;0.55;;
21721;SDS011;11023;48.274;7.794;2022-09-09T12:50:22;4.18;;;0.68;;
21721;SDS011;11023;48.274;7.794;2022-09-09T12:52:51;3.30;;;0.75;;
21721;SDS011;11023;48.274;7.794;2022-09-09T12:55:32;3.17;;;0.68;;
21721;SDS011;11023;48.274;7.794;2022-09-09T12:58:00;4.68;;;0.75;;
21721;SDS011;11023;48.274;7.794;2022-09-09T13:00:30;2.40;;;0.90;;
21721;SDS011;11023;48.274;7.794;2022-09-09T13:02:57;3.15;;;0.77;;
21721;SDS011;11023;48.274;7.794;2022-09-09T13:08:00;4.55;;;0.82;;
21721;SDS011;11023;48.274;7.794;2022-09-09T13:13:32;1.65;;;0.60;;
21721;SDS011;11023;48.274;7.794;2022-09-09T13:16:03;4.53;;;0.75;;
21721;SDS011;11023;48.274;7.794;2022-09-09T13:18:36;7.32;;;0.80;;
21721;SDS011;11023;48.274;7.794;2022-09-09T13:21:05;2.28;;;0.95;;
21721;SDS011;11023;48.274;7.794;2022-09-09T13:23:35;2.60;;;0.50;;
21721;SDS011;11023;48.274;7.794;2022-09-09T13:26:03;2.15;;;0.50;;
21721;SDS011;11023;48.274;7.794;2022-09-09T13:28:33;1.92;;;0.60;;
21721;SDS011;11023;48.274;7.794;2022-09-09T13:31:03;3.88;;;0.68;;
21721;SDS011;11023;48.274;7.794;2022-09-09T13:33:35;3.10;;;0.60;;
21721;SDS011;11023;48.274;7.794;2022-09-09T13:36:03;2.20;;;0.55;;
21721;SDS011;11023;48.274;7.794;2022-09-09T13:38:38;3.28;;;0.55;;
21721;SDS011;11023;48.274;7.794;2022-09-09T13:41:19;3.97;;;0.70;;
21721;SDS011;11023;48.274;7.794;2022-09-09T13:43:48;4.22;;;0.70;;
21721;SDS011;11023;48.274;7.794;2022-09-09T13:51:35;2.83;;;0.70;;
21721;SDS011;11023;48.274;7.794;2022-09-09T13:54:03;1.60;;;0.60;;
21721;SDS011;11023;48.274;7.794;2022-09-09T13:56:31;3.75;;;0.68;;
21721;SDS011;11023;48.274;7.794;2022-09-09T13:59:00;1.88;;;0.47;;
21721;SDS011;11023;48.274;7.794;2022-09-09T14:01:26;4.18;;;0.60;;
21721;SDS011;11023;48.274;7.794;2022-09-09T14:03:52;2.08;;;0.55;;
21721;SDS011;11023;48.274;7.794;2022-09-09T14:06:18;1.15;;;0.40;;
21721;SDS011;11023;48.274;7.794;2022-09-09T14:08:46;2.92;;;0.52;;
21721;SDS011;11023;48.274;7.794;2022-09-09T14:11:16;2.20;;;0.55;;
21721;SDS011;11023;48.274;7.794;2022-09-09T14:13:42;2.60;;;0.73;;
21721;SDS011;11023;48.274;7.794;2022-09-09T14:16:08;2.60;;;0.63;;
21721;SDS011;11023;48.274;7.794;2022-09-09T14:18:34;2.80;;;0.45;;
21721;SDS011;11023;48.274;7.794;2022-09-09T14:21:00;6.47;;;0.47;;
21721;SDS011;11023;48.274;7.794;2022-09-09T14:23:28;5.43;;;0.50;;
21721;SDS011;11023;48.274;7.794;2022-09-09T14:25:54;1.45;;;0.50;;
21721;SDS011;11023;48.274;7.794;2022-09-09T14:28:20;1.40;;;0.40;;
21721;SDS011;11023;48.274;7.794;2022-09-09T14:30:46;1.60;;;0.50;;
21721;SDS011;11023;48.274;7.794;2022-09-09T14:33:13;1.67;;;0.47;;
21721;SDS011;11023;48.274;7.794;2022-09-09T14:35:40;2.50;;;0.52;;
21721;SDS011;11023;48.274;7.794;2022-09-09T14:38:07;1.45;;;0.45;;
21721;SDS011;11023;48.274;7.794;2022-09-09T14:40:34;1.70;;;0.40;;
21721;SDS011;11023;48.274;7.794;2022-09-09T14:43:03;1.77;;;0.60;;
21721;SDS011;11023;48.274;7.794;2022-09-09T14:45:30;1.95;;;0.47;;
21721;SDS011;11023;48.274;7.794;2022-09-09T14:47:56;2.92;;;0.70;;
21721;SDS011;11023;48.274;7.794;2022-09-09T14:50:23;2.92;;;0.50;;
21721;SDS011;11023;48.274;7.794;2022-09-09T14:52:49;2.22;;;0.52;;
21721;SDS011;11023;48.274;7.794;2022-09-09T14:55:15;3.00;;;0.50;;
21721;SDS011;11023;48.274;7.794;2022-09-09T14:57:41;2.40;;;0.65;;
21721;SDS011;11023;48.274;7.794;2022-09-09T15:00:07;2.55;;;0.57;;
21721;SDS011;11023;48.274;7.794;2022-09-09T15:02:34;1.40;;;0.43;;
21721;SDS011;11023;48.274;7.794;2022-09-09T15:05:00;1.60;;;0.50;;
21721;SDS011;11023;48.274;7.794;2022-09-09T15:07:26;0.80;;;0.40;;
21721;SDS011;11023;48.274;7.794;2022-09-09T15:09:53;1.55;;;0.25;;
21721;SDS011;11023;48.274;7.794;2022-09-09T15:12:19;1.17;;;0.30;;
21721;SDS011;11023;48.274;7.794;2022-09-09T15:14:45;0.80;;;0.38;;
21721;SDS011;11023;48.274;7.794;2022-09-09T15:17:12;0.98;;;0.30;;
21721;SDS011;11023;48.274;7.794;2022-09-09T15:19:38;1.05;;;0.20;;
21721;SDS011;11023;48.274;7.794;2022-09-09T15:22:04;0.52;;;0.30;;
21721;SDS011;11023;48.274;7.794;2022-09-09T15:24:31;1.45;;;0.40;;
21721;SDS011;11023;48.274;7.794;2022-09-09T15:26:57;0.90;;;0.47;;
21721;SDS011;11023;48.274;7.794;2022-09-09T15:29:23;1.33;;;0.43;;
21721;SDS011;11023;48.274;7.794;2022-09-09T15:31:49;1.25;;;0.40;;
21721;SDS011;11023;48.274;7.794;2022-09-09T15:34:15;1.88;;;0.60;;
21721;SDS011;11023;48.274;7.794;2022-09-09T15:36:42;3.97;;;0.50;;
21721;SDS011;11023;48.274;7.794;2022-09-09T15:39:10;3.38;;;0.75;;
21721;SDS011;11023;48.274;7.794;2022-09-09T15:41:41;2.88;;;0.50;;
21721;SDS011;11023;48.274;7.794;2022-09-09T15:44:08;1.60;;;0.50;;
21721;SDS011;11023;48.274;7.794;2022-09-09T15:46:42;1.05;;;0.45;;
21721;SDS011;11023;48.274;7.794;2022-09-09T15:49:10;3.70;;;0.50;;
21721;SDS011;11023;48.274;7.794;2022-09-09T15:51:38;2.30;;;0.30;;
21721;SDS011;11023;48.274;7.794;2022-09-09T15:54:08;2.67;;;0.40;;
21721;SDS011;11023;48.274;7.794;2022-09-09T15:56:37;2.28;;;0.50;;
21721;SDS011;11023;48.274;7.794;2022-09-09T15:59:02;1.95;;;0.50;;
21721;SDS011;11023;48.274;7.794;2022-09-09T16:01:28;1.30;;;0.47;;
21721;SDS011;11023;48.274;7.794;2022-09-09T16:03:56;5.05;;;0.50;;
21721;SDS011;11023;48.274;7.794;2022-09-09T16:06:23;1.83;;;0.40;;
21721;SDS011;11023;48.274;7.794;2022-09-09T16:08:51;3.60;;;0.57;;
21721;SDS011;11023;48.274;7.794;2022-09-09T16:11:28;1.35;;;0.40;;
21721;SDS011;11023;48.274;7.794;2022-09-09T16:13:58;1.60;;;0.40;;
21721;SDS011;11023;48.274;7.794;2022-09-09T16:16:26;2.33;;;0.60;;
21721;SDS011;11023;48.274;7.794;2022-09-09T16:18:54;3.72;;;0.50;;
21721;SDS011;11023;48.274;7.794;2022-09-09T16:21:24;3.17;;;0.65;;
21721;SDS011;11023;48.274;7.794;2022-09-09T16:23:57;2.28;;;0.50;;
21721;SDS011;11023;48.274;7.794;2022-09-09T16:26:24;2.08;;;0.40;;
21721;SDS011;11023;48.274;7.794;2022-09-09T16:28:50;2.42;;;0.45;;
21721;SDS011;11023;48.274;7.794;2022-09-09T16:31:19;2.10;;;0.52;;
21721;SDS011;11023;48.274;7.794;2022-09-09T16:33:46;2.70;;;0.50;;
21721;SDS011;11023;48.274;7.794;2022-09-09T16:36:17;2.78;;;0.60;;
21721;SDS011;11023;48.274;7.794;2022-09-09T16:38:45;3.28;;;0.60;;
21721;SDS011;11023;48.274;7.794;2022-09-09T16:41:11;2.03;;;0.45;;
21721;SDS011;11023;48.274;7.794;2022-09-09T16:43:39;3.45;;;0.50;;
21721;SDS011;11023;48.274;7.794;2022-09-09T16:48:38;3.35;;;0.52;;
21721;SDS011;11023;48.274;7.794;2022-09-09T16:51:05;2.65;;;0.50;;
21721;SDS011;11023;48.274;7.794;2022-09-09T16:53:32;3.40;;;0.50;;
21721;SDS011;11023;48.274;7.794;2022-09-09T16:56:04;1.73;;;0.70;;
21721;SDS011;11023;48.274;7.794;2022-09-09T16:58:31;2.10;;;0.50;;
21721;SDS011;11023;48.274;7.794;2022-09-09T17:01:00;2.90;;;0.60;;
21721;SDS011;11023;48.274;7.794;2022-09-09T17:03:29;1.65;;;0.30;;
21721;SDS011;11023;48.274;7.794;2022-09-09T17:05:57;1.65;;;0.40;;
21721;SDS011;11023;48.274;7.794;2022-09-09T17:08:23;1.85;;;0.40;;
21721;SDS011;11023;48.274;7.794;2022-09-09T17:10:49;1.20;;;0.43;;
21721;SDS011;11023;48.274;7.794;2022-09-09T17:13:15;1.85;;;0.40;;
21721;SDS011;11023;48.274;7.794;2022-09-09T17:15:44;2.20;;;0.60;;
21721;SDS011;11023;48.274;7.794;2022-09-09T17:18:10;2.00;;;0.40;;
21721;SDS011;11023;48.274;7.794;2022-09-09T17:20:42;4.00;;;0.60;;
21721;SDS011;11023;48.274;7.794;2022-09-09T17:23:09;2.38;;;0.40;;
21721;SDS011;11023;48.274;7.794;2022-09-09T17:25:36;2.15;;;0.50;;
21721;SDS011;11023;48.274;7.794;2022-09-09T17:28:03;1.30;;;0.40;;
21721;SDS011;11023;48.274;7.794;2022-09-09T17:30:35;2.20;;;0.60;;
21721;SDS011;11023;48.274;7.794;2022-09-09T17:33:05;2.75;;;0.75;;
21721;SDS011;11023;48.274;7.794;2022-09-09T17:35:31;1.63;;;0.50;;